Viola, California
Current Conditions -  °F | °C
As of 12:53 AM on Saturday 25 Oct 2014 (Local Time) from KRDD Reporting Station
Clear Clear  
Wind Chill: 60°   Ceiling: Unl
Heat Index: 60°   Visibility: 10mi
Dew Point: 53°   Wind: 12mph
Humidity: 78%   Direction: 160°SSE
Pressure: 29.8"   Gusts: NA
Location:  40.522°N, 121.854°W
Report Text: KRDD 250753Z AUTO 16010KT 10SM CLR 16/12 A2980 RMK AO2 SLP087 T01560117 402280128
Loading
Personal Weather Stations






























Interactive Weather Map
Tropical Storm Tracking
New forecast layout! Learn more

10-Day Weather Forecast

Advertisements
Track Severe Weather on mobile